CheckWX is a tool to help pilots better visualize weather data.  It is not intended as a substitute for an official pre-flight weather briefing.

10:30:44 UTC

EDJA METAR
Memmingen Allgau Airport
Memmingen, Germany
Current

11 mins ago

EDJA 311020Z 04011KT 020V080 9999 FEW054 15/02 Q1019
Observed
May-31 @ 10:20 UTC
Wind
  • 040° at 11 KTS
Visibility
10,000+ meters
Flight Rules
VFR
Cloud Levels
  • Few at 5,400' AGL
Temperature
15°C / 59°F
Dewpoint
C / 36°F
Humidity
42%
Altimeter
30.09" Hg
Pressure
1018.92 hPa
Previous

41 mins ago

EDJA 310950Z 04009KT 010V070 9999 FEW049 15/03 Q1019
Observed
May-31 @ 09:50 UTC
Wind
  • 040° at 9 KTS
Visibility
10,000+ meters
Flight Rules
VFR
Cloud Levels
  • Few at 4,900' AGL
Temperature
15°C / 59°F
Dewpoint
C / 37°F
Humidity
45%
Altimeter
30.09" Hg
Pressure
1018.92 hPa
Previous

1 hour ago

EDJA 310920Z 06011KT 030V090 9999 FEW044 14/02 Q1019
Observed
May-31 @ 09:20 UTC
Wind
  • 060° at 11 KTS
Visibility
10,000+ meters
Flight Rules
VFR
Cloud Levels
  • Few at 4,400' AGL
Temperature
14°C / 57°F
Dewpoint
C / 36°F
Humidity
44%
Altimeter
30.09" Hg
Pressure
1018.92 hPa